Portada
METAR-TAF:

METAR-TAF

Aeropuertos :

Shearwater, Nueva Escocia, Canadá

latitud: 44-38N, longitud: 063-30W, altitud: 51 m

Observación

El informe se hizo hace 29 minutos, a las 01:00 UTC
Viento 8 kt del norte
Temperatura 7°C
Humedad 57%
Presión 1039 hPa
Visibilidad: 24.1 km
Cielo despejado

METAR: CYAW 250100Z 01008KT 15SM SKC 07/M01 A3067 RMK DA-1545FT SLP388

Hora: 22:29 (01:29 UTC)

Pronóstico

El informe se hizo hace 1 hora y 59 minutos, a las 23:30 UTC
Pronóstico válido del 25 a las 00 UTC al 25 a las 06 UTC
Viento 5 kt del norte-noreste
Visibilidad: 10 km
Cielo despejado

TAF: CYAW 242330Z 2500/2506 02005KT P6SM SKC RMK NXT FCST BY 250600Z

Observaciones y pronósticos meteorológicos de más de 4000 aeropuertos (mensajes METAR y TAF).

Los puntos amarillos y rojos representan las estaciones disponibles.

Ponga el ratón en el punto deseado para ver el nombre de la estación.

Haga clic para ver las observaciones y los pronósticos meteorológicos.

Para cambiar el mapa : haga clic en los botones verdes con una cruz de color negro para hacer un zoom, en el botón verde con un guión para alejar o en las flechas verdes para mapas adyacentes.


METAR-TAF: